LEPA/PMI METAR and TAF weather

Enter ICAO airport designator
Station Type Date Time Source
LEPA METAR 2021/09/24 05:30 UTC NOAA

LEPA 240530Z 06011KT 9999 SCT020 BKN030 25/21 Q1014 NOSIG


Station Type Date Time Source
LEPA Decoded METAR 2021/09/24 05:30 UTC NOAA

Palma De Mallorca / Son San Juan, Spain (LEPA) 39-33N 002-44E 8M
Sep 24, 2021 - 01:30 AM EDT / 2021.09.24 0530 UTC
Wind: from the ENE (060 degrees) at 13 MPH (11 KT):0
Visibility: greater than 7 mile(s):0
Sky conditions: mostly cloudy
Temperature: 77 F (25 C)
Dew Point: 69 F (21 C)
Relative Humidity: 78%
Pressure (altimeter): 29.94 in. Hg (1014 hPa)
ob: LEPA 240530Z 06011KT 9999 SCT020 BKN030 25/21 Q1014 NOSIG
cycle: 5

Station Type Date Time Source
LEPA TAF 2021/09/24 06:27 UTC NOAA

TAF LEPA 240500Z 2406/2506 06012KT 9999 SCT025 TX31/2413Z TN22/2406Z
BECMG 2412/2414 09006KT

Example: see airport list